Time;durP1;ratioP1;P1;durP2;ratioP2;P2;SDS_P1;SDS_P2;PMS_P1;PMS_P2;Temp;Humidity;BMP_temperature;BMP_pressure;BME280_temperature;BME280_humidity;BME280_pressure;Samples;Min_cycle;Max_cycle;Signal;HPM_P1;HPM_P2
2024/04/23 00:00:07;;;;;;;16.00;9.90;;;;;;;3.21;77.26;101845.69;108717;1260;138967;-65
2024/04/23 00:02:33;;;;;;;14.10;10.10;;;;;;;3.22;77.17;101841.77;108778;1260;70400;-64
2024/04/23 00:05:00;;;;;;;15.70;9.20;;;;;;;3.23;77.21;101837.20;108694;1266;59861;-64
2024/04/23 00:07:26;;;;;;;16.20;10.80;;;;;;;3.22;77.16;101833.46;108725;1260;138557;-64
2024/04/23 00:09:53;;;;;;;18.70;10.50;;;;;;;3.22;77.02;101832.75;108768;1260;75291;-64
2024/04/23 00:12:20;;;;;;;17.00;10.00;;;;;;;3.20;77.02;101834.52;108697;1260;138447;-65
2024/04/23 00:14:46;;;;;;;14.20;9.30;;;;;;;3.18;77.00;101831.45;108781;1260;72869;-64
2024/04/23 00:17:13;;;;;;;13.10;9.20;;;;;;;3.19;77.15;101833.23;108766;1260;59668;-65
2024/04/23 00:19:39;;;;;;;14.40;9.00;;;;;;;3.16;76.95;101831.94;108722;1260;138662;-64
2024/04/23 00:22:06;;;;;;;17.60;9.40;;;;;;;3.12;77.11;101832.20;108684;1266;75307;-65
2024/04/23 00:24:32;;;;;;;21.80;10.90;;;;;;;3.08;77.09;101831.77;108702;1260;138815;-64
2024/04/23 00:27:00;;;;;;;20.00;11.30;;;;;;;3.06;77.09;101832.45;108820;1260;72745;-64
2024/04/23 00:29:27;;;;;;;16.20;10.00;;;;;;;3.04;77.08;101827.48;108794;1260;59851;-65
2024/04/23 00:31:54;;;;;;;18.90;10.50;;;;;;;3.03;77.09;101824.15;108682;1260;139094;-65
2024/04/23 00:34:21;;;;;;;17.40;10.40;;;;;;;3.04;77.28;101820.21;108802;1260;75777;-65
2024/04/23 00:36:54;;;;;;;15.20;10.00;;;;;;;3.09;77.48;101825.06;108704;1260;138916;-65
2024/04/23 00:39:21;;;;;;;;;;;;;;;3.09;77.32;101821.98;108803;1260;73347;-64
2024/04/23 00:41:48;;;;;;;14.00;9.30;;;;;;;3.09;77.29;101821.23;108623;1260;125722;-65
2024/04/23 00:44:14;;;;;;;15.30;10.40;;;;;;;3.08;77.27;101821.19;108809;1260;60157;-65
2024/04/23 00:46:41;;;;;;;13.50;8.90;;;;;;;3.05;77.22;101820.27;108810;1260;75430;-65
2024/04/23 00:49:09;;;;;;;16.30;9.70;;;;;;;3.03;77.04;101815.25;108614;1260;139073;-67
2024/04/23 00:51:35;;;;;;;12.10;9.10;;;;;;;3.01;77.14;101815.09;108698;1266;73925;-64
2024/04/23 00:54:02;;;;;;;16.60;10.50;;;;;;;3.00;77.38;101811.44;108586;1260;138336;-64
2024/04/23 00:56:29;;;;;;;16.70;10.10;;;;;;;3.01;77.52;101812.70;108771;1260;60880;-65
2024/04/23 00:58:55;;;;;;;16.90;11.00;;;;;;;3.00;77.51;101813.98;108704;1260;75080;-64
2024/04/23 01:01:22;;;;;;;15.30;9.80;;;;;;;2.98;77.40;101808.11;108526;1261;138802;-64
2024/04/23 01:03:48;;;;;;;17.80;9.90;;;;;;;2.95;77.53;101809.34;108760;1260;59821;-64
2024/04/23 01:06:15;;;;;;;15.10;9.70;;;;;;;2.94;77.58;101802.16;108670;1260;139137;-64
2024/04/23 01:08:41;;;;;;;14.60;10.30;;;;;;;2.94;77.71;101798.80;108697;1260;59750;-64
2024/04/23 01:11:08;;;;;;;14.20;9.30;;;;;;;2.90;77.67;101794.23;108745;1260;75321;-64
2024/04/23 01:13:34;;;;;;;18.80;10.90;;;;;;;2.88;77.65;101794.27;108704;1260;139481;-64
2024/04/23 01:16:01;;;;;;;19.20;9.70;;;;;;;2.87;77.76;101790.89;108773;1260;72912;-64
2024/04/23 01:18:27;;;;;;;18.50;9.60;;;;;;;2.87;77.59;101787.10;108572;1260;138799;-64
2024/04/23 01:20:55;;;;;;;14.80;9.10;;;;;;;2.87;77.84;101786.76;108706;1263;59848;-65
2024/04/23 01:23:22;;;;;;;12.60;8.20;;;;;;;2.89;77.98;101786.16;108714;1260;74395;-64
2024/04/23 01:25:49;;;;;;;12.30;7.60;;;;;;;2.92;77.90;101783.45;108615;1266;139735;-64
2024/04/23 01:28:15;;;;;;;15.60;7.70;;;;;;;2.91;77.66;101779.89;108792;1260;72765;-64
2024/04/23 01:30:42;;;;;;;10.10;6.50;;;;;;;2.90;77.61;101775.67;108581;1260;139247;-64
2024/04/23 01:33:09;;;;;;;10.70;6.80;;;;;;;2.89;77.58;101777.20;108629;1260;60284;-64
2024/04/23 01:35:36;;;;;;;9.30;6.60;;;;;;;2.92;77.74;101776.67;108555;1260;139076;-64
2024/04/23 01:38:02;;;;;;;9.90;6.60;;;;;;;2.96;77.82;101777.80;108671;1260;66228;-64
2024/04/23 01:40:29;;;;;;;10.40;6.80;;;;;;;2.97;77.65;101778.42;108706;1260;72873;-64
2024/04/23 01:42:55;;;;;;;9.20;6.50;;;;;;;2.96;77.53;101776.44;108677;1260;138214;-64
2024/04/23 01:45:22;;;;;;;11.50;6.00;;;;;;;2.94;77.51;101774.73;108709;1260;59848;-65
2024/04/23 01:47:48;;;;;;;10.70;6.00;;;;;;;2.93;77.37;101771.00;108496;1260;139042;-64
2024/04/23 01:50:15;;;;;;;10.10;6.40;;;;;;;2.89;77.37;101771.94;108701;1260;64833;-64
2024/04/23 01:52:42;;;;;;;9.40;5.80;;;;;;;2.85;77.34;101768.38;108657;1260;73201;-65
2024/04/23 01:55:08;;;;;;;9.10;5.70;;;;;;;2.82;77.35;101769.02;108669;1260;138504;-64
2024/04/23 01:57:35;;;;;;;10.90;6.00;;;;;;;2.79;77.33;101765.83;108716;1260;60884;-64
2024/04/23 02:00:07;;;;;;;9.90;5.80;;;;;;;2.76;77.19;101766.19;108661;1265;138720;-65
2024/04/23 02:02:33;;;;;;;8.60;5.90;;;;;;;2.72;77.08;101764.00;108648;1267;66632;-65
2024/04/23 02:05:00;;;;;;;7.90;5.30;;;;;;;2.67;77.10;101764.32;108605;1266;71408;-65
2024/04/23 02:07:26;;;;;;;7.70;5.60;;;;;;;2.63;77.12;101765.88;108687;1260;139070;-64
2024/04/23 02:09:53;;;;;;;8.80;5.10;;;;;;;2.60;77.04;101763.42;108697;1266;60089;-64
2024/04/23 02:12:21;;;;;;;9.10;5.30;;;;;;;2.57;77.19;101762.55;108673;1260;138722;-65
2024/04/23 02:14:48;;;;;;;10.50;5.50;;;;;;;2.57;77.22;101764.23;108704;1261;65659;-65
2024/04/23 02:17:16;;;;;;;7.50;5.30;;;;;;;2.56;77.45;101762.27;108719;1260;72147;-65
2024/04/23 02:19:46;;;;;;;8.30;4.90;;;;;;;2.55;77.43;101761.49;108613;1266;138592;-65
2024/04/23 02:22:13;;;;;;;7.50;5.20;;;;;;;2.52;77.28;101759.63;108797;1264;61062;-64
2024/04/23 02:24:39;;;;;;;7.20;4.80;;;;;;;2.51;77.42;101763.84;108661;1262;138796;-64
2024/04/23 02:27:06;;;;;;;9.00;4.80;;;;;;;2.49;77.50;101760.57;108763;1263;67089;-65
2024/04/23 02:29:32;;;;;;;6.80;4.80;;;;;;;2.50;77.65;101757.19;108813;1260;72304;-65
2024/04/23 02:32:03;;;;;;;8.50;4.60;;;;;;;2.52;77.58;101754.71;108527;1260;259065;-65
2024/04/23 02:34:29;;;;;;;7.00;5.20;;;;;;;2.54;77.76;101756.41;108812;1260;60774;-65
2024/04/23 02:36:56;;;;;;;10.50;4.70;;;;;;;2.54;77.67;101754.86;108668;1260;138419;-65
2024/04/23 02:39:22;;;;;;;8.80;4.60;;;;;;;2.55;77.79;101758.71;108792;1261;64112;-65
2024/04/23 02:41:50;;;;;;;5.20;3.80;;;;;;;2.57;77.75;101755.02;108693;1260;138688;-65
2024/04/23 02:44:17;;;;;;;7.70;4.50;;;;;;;2.58;77.70;101752.89;108772;1264;59963;-64
2024/04/23 02:46:43;;;;;;;8.00;4.70;;;;;;;2.59;77.58;101747.11;108722;1260;60032;-64
2024/04/23 02:49:10;;;;;;;6.30;4.50;;;;;;;2.60;77.37;101746.44;108683;1264;139149;-64
2024/04/23 02:52:06;;;;;;;8.70;5.00;;;;;;;2.62;77.54;101748.00;108764;1265;66506;-64
2024/04/23 02:54:32;;;;;;;6.00;4.50;;;;;;;2.62;77.30;101744.84;108484;1260;139559;-64
2024/04/23 02:56:59;;;;;;;7.00;4.60;;;;;;;2.64;77.40;101745.85;108775;1261;60563;-65
2024/04/23 02:59:26;;;;;;;7.30;4.40;;;;;;;2.65;77.32;101748.92;108809;1260;59830;-65
2024/04/23 03:02:05;;;;;;;6.90;4.10;;;;;;;2.66;77.33;101748.14;108728;1260;138289;-65
2024/04/23 03:04:32;;;;;;;7.00;4.40;;;;;;;2.67;77.28;101741.59;108832;1264;74301;-65
2024/04/23 03:06:59;;;;;;;7.20;4.50;;;;;;;2.67;77.17;101744.92;108631;1261;138017;-64
2024/04/23 03:09:27;;;;;;;7.30;4.70;;;;;;;2.67;77.33;101741.64;108782;1260;59912;-64
2024/04/23 03:11:54;;;;;;;6.00;4.80;;;;;;;2.67;77.27;101742.16;108694;1261;137925;-65
2024/04/23 03:14:21;;;;;;;7.60;5.20;;;;;;;2.69;77.28;101741.95;108785;1260;73099;-65
2024/04/23 03:16:47;;;;;;;7.10;5.00;;;;;;;2.68;77.35;101738.02;108832;1260;66698;-65
2024/04/23 03:19:14;;;;;;;9.80;5.40;;;;;;;2.67;77.28;101740.02;108668;1265;138687;-65
2024/04/23 03:21:53;;;;;;;5.80;4.30;;;;;;;2.66;77.13;101739.47;108772;1260;60011;-65
2024/04/23 03:24:20;;;;;;;6.40;4.60;;;;;;;2.65;77.18;101736.63;108677;1261;138906;-65
2024/04/23 03:26:47;;;;;;;6.50;4.60;;;;;;;2.66;77.03;101737.50;108826;1263;76539;-65
2024/04/23 03:29:13;;;;;;;6.90;4.50;;;;;;;2.66;76.98;101733.86;108677;1260;66472;-65
2024/04/23 03:31:40;;;;;;;15.00;4.50;;;;;;;2.66;77.32;101734.10;108728;1264;138968;-65
2024/04/23 03:34:06;;;;;;;6.20;4.20;;;;;;;2.69;77.23;101735.66;108776;1260;60060;-64
2024/04/23 03:36:33;;;;;;;6.80;4.60;;;;;;;2.69;77.13;101734.64;108561;1263;138993;-64
2024/04/23 03:38:59;;;;;;;7.60;4.60;;;;;;;2.68;77.13;101734.42;108767;1260;73775;-64
2024/04/23 03:41:26;;;;;;;7.40;4.90;;;;;;;2.68;77.25;101730.29;108795;1261;66993;-64
2024/04/23 03:43:52;;;;;;;6.40;4.90;;;;;;;2.68;77.26;101730.81;108644;1260;138585;-65
2024/04/23 03:46:19;;;;;;;4.70;4.10;;;;;;;2.70;77.03;101728.61;108777;1260;59828;-65
2024/04/23 03:48:45;;;;;;;7.90;4.40;;;;;;;2.71;77.10;101727.67;108712;1260;141981;-65
2024/04/23 03:51:12;;;;;;;5.20;4.00;;;;;;;2.73;77.20;101727.83;108809;1261;75640;-65
2024/04/23 03:53:38;;;;;;;6.50;3.90;;;;;;;2.78;77.33;101727.79;108666;1261;137984;-65
2024/04/23 03:56:05;;;;;;;5.50;3.90;;;;;;;2.78;77.04;101730.42;108834;1261;59940;-65
2024/04/23 03:58:31;;;;;;;6.80;4.70;;;;;;;2.79;77.13;101726.38;108800;1260;60519;-65
2024/04/23 04:00:58;;;;;;;6.60;5.00;;;;;;;2.80;77.05;101722.23;108702;1260;138727;-66
2024/04/23 04:06:11;;;;;;;5.80;4.10;;;;;;;2.83;76.96;101724.19;108673;1260;139116;-65
2024/04/23 04:08:41;;;;;;;5.60;4.30;;;;;;;2.85;77.08;101725.03;108774;1260;71579;-65
2024/04/23 04:11:08;;;;;;;6.90;4.30;;;;;;;2.88;77.03;101722.98;108810;1260;59733;-64
2024/04/23 04:13:40;;;;;;;5.30;3.70;;;;;;;2.91;77.23;101724.45;108609;1260;139230;-65
2024/04/23 04:16:07;;;;;;;8.10;4.60;;;;;;;2.95;77.12;101726.21;108774;1260;75997;-63
2024/04/23 04:18:36;;;;;;;5.40;4.20;;;;;;;2.98;77.22;101725.29;108704;1261;138778;-64
2024/04/23 04:21:04;;;;;;;5.60;4.10;;;;;;;3.03;77.20;101724.45;108778;1260;73046;-64
2024/04/23 04:23:30;;;;;;;5.80;4.20;;;;;;;3.09;77.01;101724.83;108796;1260;59792;-64
2024/04/23 04:25:57;;;;;;;8.80;4.90;;;;;;;3.14;77.08;101721.89;108724;1260;139266;-64
2024/04/23 04:28:23;;;;;;;9.10;4.50;;;;;;;3.18;77.06;101721.13;108763;1260;75584;-63
2024/04/23 04:30:50;;;;;;;7.20;5.00;;;;;;;3.22;76.84;101719.83;108693;1260;138053;-63
2024/04/23 04:33:17;;;;;;;7.50;5.90;;;;;;;3.25;76.80;101718.17;108807;1260;72963;-63
2024/04/23 04:35:43;;;;;;;9.90;5.90;;;;;;;3.30;76.86;101721.30;108526;1260;138349;-63
2024/04/23 04:38:10;;;;;;;7.90;6.50;;;;;;;3.32;76.83;101719.86;108826;1260;60902;-62
2024/04/23 04:40:36;;;;;;;7.50;6.10;;;;;;;3.37;76.69;101719.86;108752;1261;69850;-62
2024/04/23 04:43:03;;;;;;;7.80;5.50;;;;;;;3.40;76.60;101717.63;108664;1260;138193;-64
2024/04/23 04:45:29;;;;;;;10.10;5.60;;;;;;;3.42;76.51;101716.23;108801;1260;72320;-64
2024/04/23 04:47:56;;;;;;;6.00;4.90;;;;;;;3.45;76.55;101716.25;108642;1261;138866;-69
2024/04/23 04:50:22;;;;;;;8.00;5.40;;;;;;;3.50;76.50;101716.27;108782;1260;61465;-65
2024/04/23 04:52:49;;;;;;;8.90;6.10;;;;;;;3.56;76.45;101722.33;108801;1260;74141;-65
2024/04/23 04:55:16;;;;;;;9.90;5.90;;;;;;;3.60;76.18;101719.84;108705;1260;139277;-64
2024/04/23 04:57:42;;;;;;;8.80;5.60;;;;;;;3.62;76.15;101716.52;108766;1260;72889;-65
2024/04/23 05:00:09;;;;;;;7.70;5.50;;;;;;;3.67;76.15;101713.05;108627;1260;138939;-65
2024/04/23 05:02:37;;;;;;;7.20;4.80;;;;;;;3.77;76.40;101709.72;108788;1260;60081;-66
2024/04/23 05:05:04;;;;;;;7.90;4.70;;;;;;;3.88;76.25;101704.05;108778;1262;75880;-65
2024/04/23 05:07:34;;;;;;;8.90;4.60;;;;;;;3.95;76.09;101699.84;108596;1263;138411;-65
2024/04/23 05:10:08;;;;;;;6.10;4.60;;;;;;;4.08;76.16;101701.89;108524;1260;73045;-65
2024/04/23 05:12:36;;;;;;;7.20;4.90;;;;;;;4.18;75.93;101697.17;108640;1260;138602;-66
2024/04/23 05:15:05;;;;;;;6.20;4.50;;;;;;;4.27;75.76;101699.70;108697;1260;60186;-65
2024/04/23 05:17:32;;;;;;;8.20;4.80;;;;;;;4.39;75.65;101696.99;108749;1261;74585;-66
2024/04/23 05:19:59;;;;;;;6.30;4.50;;;;;;;4.49;75.59;101693.80;108578;1262;137579;-66
2024/04/23 05:22:26;;;;;;;6.20;4.70;;;;;;;4.63;75.61;101695.41;108768;1260;71982;-65
2024/04/23 05:24:52;;;;;;;6.50;4.40;;;;;;;4.79;75.22;101695.89;108590;1260;137818;-64
2024/04/23 05:27:19;;;;;;;5.50;4.00;;;;;;;4.88;74.91;101689.17;108754;1260;60222;-65
2024/04/23 05:29:51;;;;;;;5.70;3.90;;;;;;;4.97;74.73;101693.77;108662;1260;138703;-67
2024/04/23 05:35:03;;;;;;;6.80;3.40;;;;;;;5.07;73.81;101697.64;108794;1261;74304;-65
2024/04/23 05:37:29;;;;;;;6.20;3.90;;;;;;;5.29;73.98;101699.20;108655;1260;138337;-66
2024/04/23 05:39:56;;;;;;;6.80;3.70;;;;;;;5.53;73.67;101697.84;108779;1260;59993;-67
2024/04/23 05:42:22;;;;;;;4.20;3.80;;;;;;;5.79;73.62;101699.39;108664;1260;138363;-66
2024/04/23 05:44:49;;;;;;;4.60;3.80;;;;;;;6.10;73.52;101695.34;108814;1260;64981;-66
2024/04/23 05:47:16;;;;;;;6.20;3.80;;;;;;;6.48;73.36;101698.05;108753;1260;72862;-66
2024/04/23 05:50:20;;;;;;;6.00;4.30;;;;;;;6.83;72.78;101698.04;108581;1260;139308;-66
2024/04/23 05:53:24;;;;;;;4.90;3.30;;;;;;;7.04;71.51;101697.64;108754;1260;61386;-66
2024/04/23 05:55:50;;;;;;;4.70;3.50;;;;;;;7.10;70.81;101700.09;108615;1261;138662;-66
2024/04/23 05:58:17;;;;;;;3.50;3.20;;;;;;;7.15;70.48;101698.61;108657;1260;66103;-67
2024/04/23 06:00:44;;;;;;;3.40;2.70;;;;;;;7.22;70.06;101692.85;108644;1260;138109;-68
2024/04/23 06:03:10;;;;;;;3.10;2.40;;;;;;;7.25;69.54;101688.66;108766;1260;60074;-66
2024/04/23 06:05:37;;;;;;;4.00;2.60;;;;;;;7.25;68.96;101689.54;108556;1260;137773;-65
2024/04/23 06:08:04;;;;;;;4.30;2.20;;;;;;;7.23;68.54;101691.33;108749;1260;75872;-67
2024/04/23 06:10:31;;;;;;;4.00;2.20;;;;;;;7.18;68.21;101688.80;108708;1260;65248;-67
2024/04/23 06:12:58;;;;;;;3.20;2.40;;;;;;;7.16;67.95;101683.98;108520;1260;138172;-67
2024/04/23 06:15:25;;;;;;;4.90;3.00;;;;;;;7.12;67.34;101684.30;108753;1260;60152;-67
2024/04/23 06:17:51;;;;;;;2.50;2.30;;;;;;;7.11;67.47;101686.84;108686;1260;140667;-66
2024/04/23 06:20:18;;;;;;;4.00;2.70;;;;;;;7.08;66.71;101688.79;108829;1260;74773;-67
2024/04/23 06:22:48;;;;;;;4.80;3.50;;;;;;;6.98;66.48;101693.48;108825;1259;64170;-67
2024/04/23 06:25:16;;;;;;;6.90;3.00;;;;;;;6.90;66.35;101691.29;108620;1260;138766;-67
2024/04/23 06:27:42;;;;;;;4.20;3.10;;;;;;;6.85;66.34;101689.29;108710;1260;60150;-67
2024/04/23 06:30:10;;;;;;;4.90;2.80;;;;;;;6.85;66.40;101687.89;108572;1260;138839;-67
2024/04/23 06:32:37;;;;;;;3.90;3.20;;;;;;;6.88;66.24;101684.73;108785;1260;74653;-66
2024/04/23 06:35:04;;;;;;;3.90;3.20;;;;;;;6.95;66.25;101686.33;108784;1263;65035;-66
2024/04/23 06:37:32;;;;;;;3.80;3.00;;;;;;;6.99;66.03;101687.27;108638;1260;138471;-66
2024/04/23 06:39:58;;;;;;;5.70;3.30;;;;;;;7.05;65.76;101683.75;108750;1264;59737;-66
2024/04/23 06:42:25;;;;;;;7.10;6.30;;;;;;;7.09;65.64;101686.56;108654;1263;138209;-67
2024/04/23 06:44:51;;;;;;;6.10;3.80;;;;;;;7.12;65.26;101690.23;108816;1260;74391;-66
2024/04/23 06:47:18;;;;;;;3.10;2.80;;;;;;;7.17;65.11;101693.48;108857;1260;65066;-66
2024/04/23 06:49:44;;;;;;;6.40;3.20;;;;;;;7.29;64.95;101692.53;108239;1260;138983;-66
2024/04/23 06:52:14;;;;;;;4.30;3.30;;;;;;;7.43;64.55;101690.14;108784;1260;60151;-66
2024/04/23 06:54:41;;;;;;;4.80;3.30;;;;;;;7.55;64.41;101688.66;108642;1260;138437;-67
2024/04/23 06:57:08;;;;;;;8.70;4.90;;;;;;;7.72;64.30;101684.29;108796;1260;75104;-67
2024/04/23 06:59:34;;;;;;;7.30;5.50;;;;;;;7.94;64.16;101681.41;108779;1260;66502;-67
2024/04/23 07:02:01;;;;;;;6.10;3.70;;;;;;;8.03;63.44;101677.12;108779;1260;73374;-67
2024/04/23 07:04:28;;;;;;;5.80;4.30;;;;;;;8.10;63.40;101673.84;108768;1260;59921;-66
2024/04/23 07:06:55;;;;;;;6.30;3.50;;;;;;;8.28;63.28;101669.61;108666;1260;138412;-67
2024/04/23 07:09:21;;;;;;;5.00;3.10;;;;;;;8.42;62.70;101677.50;108790;1260;76748;-67
2024/04/23 07:11:48;;;;;;;6.80;3.30;;;;;;;8.43;61.74;101678.56;108692;1260;138043;-67
2024/04/23 07:14:14;;;;;;;5.40;3.50;;;;;;;8.38;61.18;101677.95;108810;1260;70868;-66
2024/04/23 07:16:45;;;;;;;4.00;3.00;;;;;;;8.37;61.03;101675.13;108727;1260;60028;-66
2024/04/23 07:19:12;;;;;;;3.40;2.80;;;;;;;8.47;61.13;101673.02;108671;1260;140021;-66
2024/04/23 07:21:38;;;;;;;3.70;2.60;;;;;;;8.57;61.03;101667.73;108715;1260;74567;-66
2024/04/23 07:24:05;;;;;;;3.10;2.80;;;;;;;8.72;60.98;101671.58;108676;1260;139391;-66
2024/04/23 07:26:32;;;;;;;5.20;3.40;;;;;;;8.96;60.87;101672.88;108814;1260;72874;-67
2024/04/23 07:28:58;;;;;;;3.70;3.00;;;;;;;9.20;60.69;101670.27;108765;1260;59968;-67
2024/04/23 07:31:25;;;;;;;3.30;2.70;;;;;;;9.39;60.23;101672.36;108720;1260;137887;-67
2024/04/23 07:33:51;;;;;;;4.80;2.40;;;;;;;9.54;60.05;101674.08;108761;1260;76557;-66
2024/04/23 07:36:18;;;;;;;4.40;2.80;;;;;;;9.61;59.42;101670.89;108655;1260;138738;-67
2024/04/23 07:38:44;;;;;;;4.80;2.50;;;;;;;9.66;59.07;101671.44;108792;1260;72243;-67
2024/04/23 07:41:14;;;;;;;5.80;4.10;;;;;;;9.75;58.73;101673.23;108813;1260;59997;-66
2024/04/23 07:43:41;;;;;;;5.80;4.90;;;;;;;9.82;58.29;101670.39;108674;1260;138219;-62
2024/04/23 07:46:08;;;;;;;4.70;3.30;;;;;;;9.81;57.80;101669.48;108764;1260;75598;-66
2024/04/23 07:48:34;;;;;;;4.80;3.00;;;;;;;9.79;57.66;101669.89;108673;1260;138337;-67
2024/04/23 07:51:01;;;;;;;3.00;2.50;;;;;;;9.73;57.46;101671.41;108768;1260;71604;-67
2024/04/23 07:53:28;;;;;;;6.70;3.10;;;;;;;9.70;57.27;101667.77;108721;1260;60301;-66
2024/04/23 07:55:55;;;;;;;6.40;2.80;;;;;;;9.74;57.21;101668.98;108649;1260;138358;-67
2024/04/23 07:58:22;;;;;;;3.60;2.70;;;;;;;9.77;57.05;101668.77;108708;1260;74701;-66
2024/04/23 08:00:48;;;;;;;3.60;3.10;;;;;;;9.84;56.84;101663.45;108632;1260;138338;-66
2024/04/23 08:03:15;;;;;;;4.00;3.40;;;;;;;9.96;56.72;101661.34;108750;1260;73307;-62
2024/04/23 08:05:44;;;;;;;3.70;2.90;;;;;;;10.12;56.49;101656.23;108714;1260;139507;-62
2024/04/23 08:08:10;;;;;;;4.20;3.00;;;;;;;10.29;56.34;101653.92;108784;1260;60005;-62
2024/04/23 08:10:38;;;;;;;4.00;3.00;;;;;;;10.47;55.97;101651.19;108774;1260;77061;-67
2024/04/23 08:13:04;;;;;;;5.10;3.10;;;;;;;10.63;55.75;101650.92;108684;1260;139109;-66
2024/04/23 08:15:31;;;;;;;4.20;3.40;;;;;;;10.82;55.62;101650.07;108743;1260;71867;-66
2024/04/23 08:17:58;;;;;;;8.10;2.90;;;;;;;11.02;55.39;101645.39;108653;1260;138401;-66
2024/04/23 08:20:25;;;;;;;5.70;3.20;;;;;;;11.25;54.97;101642.36;108807;1260;60167;-67
2024/04/23 08:22:56;;;;;;;3.90;2.80;;;;;;;11.43;54.55;101644.27;108658;1261;76959;-67
2024/04/23 08:25:22;;;;;;;3.90;3.30;;;;;;;11.51;54.16;101647.15;108620;1260;138578;-66
2024/04/23 08:27:49;;;;;;;3.40;3.00;;;;;;;11.47;53.57;101647.02;108773;1260;72685;-67
2024/04/23 08:30:19;;;;;;;4.80;3.80;;;;;;;11.32;52.90;101645.27;108622;1260;138209;-68
2024/04/23 08:32:46;;;;;;;4.90;3.40;;;;;;;11.07;52.59;101647.15;108803;1260;60241;-67
2024/04/23 08:35:13;;;;;;;4.60;3.80;;;;;;;10.80;52.45;101647.87;108801;1260;76398;-63
2024/04/23 08:37:42;;;;;;;7.50;3.90;;;;;;;10.55;52.32;101647.61;108693;1260;138361;-63
2024/04/23 08:40:09;;;;;;;4.70;3.70;;;;;;;10.24;52.13;101649.35;108757;1260;72164;-63
2024/04/23 08:42:37;;;;;;;6.30;3.90;;;;;;;10.05;52.22;101648.20;108550;1260;138815;-62
2024/04/23 08:45:06;;;;;;;3.40;3.00;;;;;;;9.92;52.07;101644.67;108631;1260;60395;-63
2024/04/23 08:47:32;;;;;;;5.50;4.30;;;;;;;9.78;52.08;101647.09;108837;1260;75793;-62
2024/04/23 08:49:59;;;;;;;3.90;3.20;;;;;;;9.67;52.18;101647.64;108627;1260;137846;-63
2024/04/23 08:52:26;;;;;;;4.40;3.10;;;;;;;9.63;51.99;101647.98;108683;1260;71584;-63
2024/04/23 08:54:53;;;;;;;4.00;2.40;;;;;;;9.67;52.06;101643.96;108652;1260;138789;-63
2024/04/23 08:57:20;;;;;;;3.80;2.60;;;;;;;9.86;52.12;101641.10;108768;1260;61613;-63
2024/04/23 08:59:46;;;;;;;3.50;2.90;;;;;;;10.13;52.17;101639.94;108622;1260;138824;-63
2024/04/23 09:02:28;;;;;;;4.20;3.70;;;;;;;10.38;51.92;101635.17;108693;1260;66432;-62
2024/04/23 09:04:56;;;;;;;4.70;3.50;;;;;;;10.52;51.67;101636.27;108687;1260;73929;-62
2024/04/23 09:07:22;;;;;;;4.40;3.30;;;;;;;10.62;51.51;101630.33;108633;1260;138813;-62
2024/04/23 09:09:50;;;;;;;5.30;3.50;;;;;;;10.76;51.40;101628.41;108694;1259;59859;-62
2024/04/23 09:12:16;;;;;;;3.00;2.70;;;;;;;10.85;51.03;101626.83;108452;1260;138736;-62
2024/04/23 09:14:45;;;;;;;4.10;3.00;;;;;;;10.88;50.73;101628.71;108803;1260;59727;-62
2024/04/23 09:17:11;;;;;;;3.60;3.10;;;;;;;10.94;50.57;101628.91;108788;1260;72825;-62
2024/04/23 09:19:38;;;;;;;4.50;3.10;;;;;;;10.95;50.29;101627.39;108628;1259;138383;-62
2024/04/23 09:22:04;;;;;;;3.00;2.70;;;;;;;10.88;50.11;101631.86;108823;1259;60153;-62
2024/04/23 09:24:31;;;;;;;5.00;3.40;;;;;;;10.77;49.91;101627.95;108659;1259;138768;-62
2024/04/23 09:26:58;;;;;;;4.30;3.10;;;;;;;10.69;49.80;101629.55;108795;1260;66436;-62
2024/04/23 09:29:29;;;;;;;4.00;2.40;;;;;;;10.60;49.82;101625.86;108760;1259;70774;-62
2024/04/23 09:31:56;;;;;;;3.30;2.80;;;;;;;10.48;49.50;101626.48;108467;1260;138760;-62
2024/04/23 09:34:26;;;;;;;3.90;2.60;;;;;;;10.36;49.39;101623.19;108579;1260;59785;-62
2024/04/23 09:36:52;;;;;;;2.50;2.30;;;;;;;10.36;49.33;101614.41;108597;1260;138475;-62
2024/04/23 09:39:19;;;;;;;4.00;3.00;;;;;;;10.50;49.43;101610.02;108662;1262;66228;-62
2024/04/23 09:41:54;;;;;;;3.80;2.60;;;;;;;10.73;49.13;101605.47;108668;1259;139342;-62
2024/04/23 09:44:21;;;;;;;3.30;2.80;;;;;;;11.01;49.21;101602.15;108769;1260;60085;-62
2024/04/23 09:46:48;;;;;;;2.50;2.20;;;;;;;11.37;49.03;101602.39;108703;1260;61093;-62
2024/04/23 09:49:15;;;;;;;3.10;2.60;;;;;;;11.67;48.64;101600.96;108572;1260;138660;-62
2024/04/23 09:51:41;;;;;;;3.00;2.40;;;;;;;11.92;48.34;101597.94;108729;1260;69179;-63
2024/04/23 09:54:08;;;;;;;3.60;2.40;;;;;;;12.02;47.74;101594.25;108660;1259;138162;-62
2024/04/23 09:56:34;;;;;;;1.80;1.70;;;;;;;12.02;47.55;101593.00;108815;1260;59875;-62
2024/04/23 09:59:01;;;;;;;3.00;2.20;;;;;;;11.97;47.17;101586.71;108791;1259;61181;-62
2024/04/23 10:01:27;;;;;;;3.30;2.10;;;;;;;11.97;47.07;101590.40;108700;1260;138312;-63
2024/04/23 10:03:59;;;;;;;4.50;2.10;;;;;;;11.97;46.76;101581.96;108595;1260;67091;-64
2024/04/23 10:06:29;;;;;;;4.00;3.20;;;;;;;12.01;46.73;101584.20;108318;1260;138209;-62
2024/04/23 10:08:58;;;;;;;5.00;2.10;;;;;;;12.08;46.62;101579.11;108635;1260;60359;-63
2024/04/23 10:12:04;;;;;;;2.90;1.90;;;;;;;12.11;46.33;101581.85;108723;1259;60269;-63
2024/04/23 10:14:40;;;;;;;3.10;2.20;;;;;;;12.06;46.14;101582.75;108748;1260;76443;-63
2024/04/23 10:17:10;;;;;;;3.70;2.40;;;;;;;11.91;46.06;101578.55;108744;1260;66833;-63
2024/04/23 10:19:37;;;;;;;2.90;2.50;;;;;;;11.71;45.81;101581.03;108710;1259;138037;-63
2024/04/23 10:22:04;;;;;;;3.00;2.60;;;;;;;11.47;45.58;101580.77;108695;1259;59999;-63
2024/04/23 10:24:30;;;;;;;2.90;2.60;;;;;;;11.23;45.42;101580.11;108689;1259;137995;-63
2024/04/23 10:26:57;;;;;;;3.00;2.60;;;;;;;11.03;45.69;101583.27;108762;1260;60081;-63
2024/04/23 10:29:23;;;;;;;5.50;2.70;;;;;;;10.88;45.60;101583.21;108703;1260;66235;-63
2024/04/23 10:31:50;;;;;;;3.70;3.10;;;;;;;10.68;45.56;101584.76;108593;1260;138839;-63
2024/04/23 10:34:17;;;;;;;4.80;3.40;;;;;;;10.50;45.73;101585.67;108691;1259;60237;-62
2024/04/23 10:36:47;;;;;;;3.90;2.90;;;;;;;10.43;45.81;101578.55;108620;1259;138404;-63
2024/04/23 10:39:14;;;;;;;3.60;2.80;;;;;;;10.37;45.86;101574.45;108827;1259;75095;-63
2024/04/23 10:41:41;;;;;;;5.80;2.70;;;;;;;10.37;45.95;101570.06;108747;1260;67735;-62
2024/04/23 10:44:09;;;;;;;3.10;2.70;;;;;;;10.37;45.93;101570.59;108660;1260;138893;-63
2024/04/23 10:46:37;;;;;;;5.20;2.90;;;;;;;10.47;46.11;101570.13;108792;1260;59820;-62
2024/04/23 10:49:09;;;;;;;4.00;2.60;;;;;;;10.67;46.10;101567.87;108493;1265;138470;-63
2024/04/23 10:51:36;;;;;;;3.40;2.60;;;;;;;10.92;46.02;101563.52;108769;1259;75330;-62
2024/04/23 10:54:03;;;;;;;4.80;2.70;;;;;;;11.12;45.78;101556.70;108641;1260;138926;-63
2024/04/23 10:56:32;;;;;;;3.40;2.80;;;;;;;11.39;45.75;101554.64;108786;1259;72663;-62
2024/04/23 10:59:13;;;;;;;5.20;2.90;;;;;;;11.70;45.62;101549.02;108718;1259;59754;-63
2024/04/23 11:01:56;;;;;;;4.10;2.80;;;;;;;11.85;45.26;101554.61;108707;1260;138242;-63
2024/04/23 11:04:33;;;;;;;4.50;2.50;;;;;;;11.94;45.02;101551.40;108782;1260;75893;-63
2024/04/23 11:07:03;;;;;;;4.10;2.60;;;;;;;12.04;45.00;101554.89;108683;1259;138427;-63
2024/04/23 11:09:42;;;;;;;4.00;2.70;;;;;;;12.05;44.86;101556.34;108793;1259;72679;-62
2024/04/23 11:12:18;;;;;;;4.10;2.80;;;;;;;11.82;44.31;101550.48;108719;1259;138822;-63
2024/04/23 11:14:45;;;;;;;4.00;3.20;;;;;;;11.47;44.17;101553.52;108578;1262;60452;-63
2024/04/23 11:17:12;;;;;;;4.70;3.40;;;;;;;11.17;44.21;101553.70;108797;1260;74843;-63
2024/04/23 11:19:42;;;;;;;4.30;3.30;;;;;;;11.08;44.78;101550.77;108678;1260;138700;-62
2024/04/23 11:22:10;;;;;;;4.80;3.80;;;;;;;11.16;44.76;101545.76;108776;1260;71311;-62
2024/04/23 11:24:44;;;;;;;4.70;3.60;;;;;;;11.17;44.82;101542.45;108684;1260;138734;-62
2024/04/23 11:27:14;;;;;;;5.30;3.60;;;;;;;11.07;44.68;101541.59;108737;1261;60516;-62